Time;durP1;ratioP1;P1;durP2;ratioP2;P2;SDS_P1;SDS_P2;PMS_P1;PMS_P2;Temp;Humidity;BMP_temperature;BMP_pressure;BME280_temperature;BME280_humidity;BME280_pressure;Samples;Min_cycle;Max_cycle;Signal;HPM_P1;HPM_P2
2021/09/03 00:00:37;;;;;;;35.28;26.67;;;;;;;;;;2080524;28;20211;-55
2021/09/03 00:01:38;;;;;;;35.63;29.23;;;;;;;;;;2080928;28;20183;-59
2021/09/03 00:02:39;;;;;;;34.63;28.45;;;;;;;;;;2080945;28;20191;-56
2021/09/03 00:03:39;;;;;;;39.30;30.38;;;;;;;;;;2081144;28;20173;-57
2021/09/03 00:04:40;;;;;;;44.22;32.33;;;;;;;;;;2081016;28;20203;-56
2021/09/03 00:05:40;;;;;;;42.67;29.33;;;;;;;;;;2081286;28;20263;-58
2021/09/03 00:06:41;;;;;;;39.67;31.00;;;;;;;;;;2072053;28;20205;-57
2021/09/03 00:07:41;;;;;;;42.28;31.23;;;;;;;;;;2072122;28;20175;-56
2021/09/03 00:08:41;;;;;;;38.67;28.85;;;;;;;;;;2072299;28;20185;-58
2021/09/03 00:09:42;;;;;;;42.00;29.13;;;;;;;;;;2073736;28;20181;-54
2021/09/03 00:10:42;;;;;;;38.13;29.35;;;;;;;;;;2080102;28;20696;-55
2021/09/03 00:11:42;;;;;;;34.10;27.92;;;;;;;;;;2081876;28;20575;-55
2021/09/03 00:12:42;;;;;;;39.45;28.67;;;;;;;;;;2079768;28;20605;-57
2021/09/03 00:13:43;;;;;;;35.60;28.42;;;;;;;;;;2074452;28;20621;-55
2021/09/03 00:14:43;;;;;;;42.80;31.38;;;;;;;;;;2081532;28;20168;-56
2021/09/03 00:15:43;;;;;;;44.65;29.75;;;;;;;;;;2076317;28;20165;-54
2021/09/03 00:16:44;;;;;;;34.60;28.67;;;;;;;;;;2082137;28;20181;-55
2021/09/03 00:17:44;;;;;;;34.47;26.83;;;;;;;;;;2079111;28;20212;-55
2021/09/03 00:18:47;;;;;;;34.03;25.88;;;;;;;;;;2075070;28;20176;-55
2021/09/03 00:19:48;;;;;;;31.08;24.48;;;;;;;;;;2082229;28;20199;-54
2021/09/03 00:20:48;;;;;;;27.95;23.15;;;;;;;;;;2080930;28;20180;-53
2021/09/03 00:21:48;;;;;;;30.10;22.83;;;;;;;;;;2067858;28;20244;-54
2021/09/03 00:22:48;;;;;;;27.73;22.60;;;;;;;;;;2073508;28;20169;-54
2021/09/03 00:23:49;;;;;;;28.35;22.23;;;;;;;;;;2082151;28;20202;-57
2021/09/03 00:24:49;;;;;;;30.98;24.67;;;;;;;;;;2081148;28;20581;-53
2021/09/03 00:25:49;;;;;;;25.50;22.23;;;;;;;;;;2081951;28;20172;-55
2021/09/03 00:26:50;;;;;;;31.25;23.52;;;;;;;;;;2081529;28;20279;-53
2021/09/03 00:27:51;;;;;;;28.70;24.35;;;;;;;;;;2079476;28;20188;-53
2021/09/03 00:28:51;;;;;;;30.48;22.58;;;;;;;;;;2069866;28;20230;-52
2021/09/03 00:29:52;;;;;;;29.05;22.92;;;;;;;;;;2075649;28;20230;-55
2021/09/03 00:30:52;;;;;;;25.48;22.00;;;;;;;;;;2078982;28;20209;-56
2021/09/03 00:31:52;;;;;;;29.98;22.73;;;;;;;;;;2073977;28;20259;-57
2021/09/03 00:32:52;;;;;;;28.27;22.98;;;;;;;;;;2076241;28;20179;-54
2021/09/03 00:33:52;;;;;;;25.80;21.63;;;;;;;;;;2081130;28;20184;-54
2021/09/03 00:34:53;;;;;;;27.70;23.05;;;;;;;;;;2082134;28;20210;-53
2021/09/03 00:35:53;;;;;;;28.60;23.00;;;;;;;;;;2081106;28;20665;-56
2021/09/03 00:36:54;;;;;;;28.83;23.58;;;;;;;;;;2083188;28;20172;-55
2021/09/03 00:37:54;;;;;;;29.08;23.77;;;;;;;;;;2081815;28;20195;-53
2021/09/03 00:38:54;;;;;;;30.70;25.30;;;;;;;;;;2081898;28;20172;-58
2021/09/03 00:39:54;;;;;;;30.55;24.30;;;;;;;;;;2077293;28;20177;-55
2021/09/03 00:40:55;;;;;;;31.15;24.00;;;;;;;;;;2071175;28;20759;-55
2021/09/03 00:41:55;;;;;;;32.03;25.50;;;;;;;;;;2062818;28;20534;-51
2021/09/03 00:42:55;;;;;;;31.58;23.65;;;;;;;;;;2068230;28;20187;-55
2021/09/03 00:43:56;;;;;;;27.83;24.48;;;;;;;;;;2068925;28;20188;-57
2021/09/03 00:44:56;;;;;;;29.55;23.88;;;;;;;;;;2082220;28;20192;-58
2021/09/03 00:45:57;;;;;;;32.40;24.98;;;;;;;;;;2073112;28;20161;-57
2021/09/03 00:46:57;;;;;;;31.63;25.33;;;;;;;;;;2072700;28;20251;-57
2021/09/03 00:47:57;;;;;;;34.10;26.05;;;;;;;;;;2080817;28;20202;-54
2021/09/03 00:48:58;;;;;;;37.00;27.15;;;;;;;;;;2076686;28;20731;-55
2021/09/03 00:49:58;;;;;;;34.75;24.70;;;;;;;;;;2079812;28;20524;-57
2021/09/03 00:50:59;;;;;;;29.42;24.40;;;;;;;;;;2081253;28;20207;-57
2021/09/03 00:52:01;;;;;;;30.00;24.50;;;;;;;;;;2076878;28;20185;-57
2021/09/03 00:53:01;;;;;;;37.05;26.40;;;;;;;;;;2076792;28;20172;-54
2021/09/03 00:54:02;;;;;;;37.20;26.23;;;;;;;;;;2078483;28;20196;-55
2021/09/03 00:55:02;;;;;;;29.67;25.60;;;;;;;;;;2076623;28;20181;-55
2021/09/03 00:56:03;;;;;;;29.05;23.92;;;;;;;;;;2081257;28;20256;-55
2021/09/03 00:57:04;;;;;;;33.22;24.75;;;;;;;;;;2081514;28;20633;-57
2021/09/03 00:58:04;;;;;;;34.78;25.98;;;;;;;;;;2080558;28;20645;-55
2021/09/03 00:59:04;;;;;;;34.50;25.25;;;;;;;;;;2081578;28;20180;-58
2021/09/03 01:00:05;;;;;;;32.63;25.52;;;;;;;;;;2078448;28;20176;-60
2021/09/03 01:01:05;;;;;;;35.33;26.08;;;;;;;;;;2081257;28;20192;-55
2021/09/03 01:02:06;;;;;;;33.03;26.60;;;;;;;;;;2080876;28;20176;-53
2021/09/03 01:03:07;;;;;;;35.17;25.52;;;;;;;;;;2080196;28;20184;-56
2021/09/03 01:04:08;;;;;;;29.42;24.85;;;;;;;;;;2078020;28;20164;-55
2021/09/03 01:05:09;;;;;;;33.15;25.15;;;;;;;;;;2075591;28;20283;-59
2021/09/03 01:06:09;;;;;;;29.73;24.75;;;;;;;;;;2073026;28;20173;-58
2021/09/03 01:07:09;;;;;;;32.95;26.52;;;;;;;;;;2064724;28;20257;-57
2021/09/03 01:08:10;;;;;;;31.65;24.92;;;;;;;;;;2078306;28;20267;-57
2021/09/03 01:09:10;;;;;;;29.27;23.17;;;;;;;;;;2073893;28;20618;-56
2021/09/03 01:10:10;;;;;;;31.77;25.10;;;;;;;;;;2081022;28;20194;-59
2021/09/03 01:11:11;;;;;;;30.45;26.00;;;;;;;;;;2081065;28;20334;-59
2021/09/03 01:12:11;;;;;;;32.90;26.75;;;;;;;;;;2081813;28;20164;-58
2021/09/03 01:13:12;;;;;;;33.92;25.92;;;;;;;;;;2082063;28;20179;-58
2021/09/03 01:14:13;;;;;;;31.08;25.38;;;;;;;;;;2082292;28;20164;-57
2021/09/03 01:15:14;;;;;;;33.38;26.15;;;;;;;;;;2082038;28;20702;-54
2021/09/03 01:16:14;;;;;;;35.38;26.95;;;;;;;;;;2082055;28;20211;-58
2021/09/03 01:17:14;;;;;;;37.58;25.15;;;;;;;;;;2082046;28;20540;-53
2021/09/03 01:18:14;;;;;;;36.33;24.90;;;;;;;;;;2081176;28;20176;-56
2021/09/03 01:19:15;;;;;;;35.10;26.42;;;;;;;;;;2082346;28;20649;-54
2021/09/03 01:20:15;;;;;;;27.98;24.92;;;;;;;;;;2081254;28;20179;-54
2021/09/03 01:21:15;;;;;;;37.58;27.15;;;;;;;;;;2082262;28;20212;-55
2021/09/03 01:22:17;;;;;;;30.23;26.08;;;;;;;;;;2073218;28;20272;-57
2021/09/03 01:23:18;;;;;;;36.13;25.73;;;;;;;;;;2073315;28;20236;-54
2021/09/03 01:25:30;;;;;;;33.63;25.23;;;;;;;;;;2063593;28;20233;-56
2021/09/03 01:26:30;;;;;;;32.28;25.17;;;;;;;;;;2068796;28;20189;-49
2021/09/03 01:27:30;;;;;;;32.60;24.17;;;;;;;;;;2061415;28;20180;-56
2021/09/03 01:28:31;;;;;;;32.28;25.92;;;;;;;;;;2063979;28;20329;-53
2021/09/03 01:29:31;;;;;;;34.20;25.25;;;;;;;;;;2069384;28;20216;-50
2021/09/03 01:30:31;;;;;;;34.83;26.00;;;;;;;;;;2072955;28;20605;-51
2021/09/03 01:31:31;;;;;;;33.95;26.40;;;;;;;;;;2073486;28;20173;-51
2021/09/03 01:32:32;;;;;;;41.85;27.25;;;;;;;;;;2073339;28;20291;-51
2021/09/03 01:33:32;;;;;;;31.10;26.00;;;;;;;;;;2072139;28;20235;-52
2021/09/03 01:34:32;;;;;;;33.15;26.23;;;;;;;;;;2065287;28;20185;-51
2021/09/03 01:35:32;;;;;;;35.83;28.20;;;;;;;;;;2069233;28;20174;-51
2021/09/03 01:36:33;;;;;;;34.42;26.92;;;;;;;;;;2072106;28;20205;-56
2021/09/03 01:37:33;;;;;;;32.80;25.85;;;;;;;;;;2065476;28;20207;-52
2021/09/03 01:38:34;;;;;;;34.15;26.52;;;;;;;;;;2065288;28;20289;-55
2021/09/03 01:39:34;;;;;;;35.08;28.75;;;;;;;;;;2066523;28;20196;-49
2021/09/03 01:40:35;;;;;;;35.25;28.35;;;;;;;;;;2072923;28;20241;-51
2021/09/03 01:41:35;;;;;;;44.97;31.05;;;;;;;;;;2064587;28;20181;-56
2021/09/03 01:42:36;;;;;;;43.97;31.40;;;;;;;;;;2063105;28;20200;-49
2021/09/03 01:43:36;;;;;;;43.00;31.08;;;;;;;;;;2064041;28;20200;-51
2021/09/03 01:44:36;;;;;;;40.17;29.65;;;;;;;;;;2063261;28;20272;-52
2021/09/03 01:45:36;;;;;;;38.65;28.30;;;;;;;;;;2064141;28;20206;-54
2021/09/03 01:46:37;;;;;;;38.90;28.63;;;;;;;;;;2072133;28;20188;-55
2021/09/03 01:47:37;;;;;;;36.70;27.80;;;;;;;;;;2070107;28;20205;-51
2021/09/03 01:48:37;;;;;;;37.28;27.38;;;;;;;;;;2073047;28;20584;-54
2021/09/03 01:49:37;;;;;;;37.22;29.83;;;;;;;;;;2072811;28;20719;-52
2021/09/03 01:50:38;;;;;;;44.45;31.23;;;;;;;;;;2073337;28;20184;-53
2021/09/03 01:51:38;;;;;;;43.60;31.15;;;;;;;;;;2073562;28;20173;-55
2021/09/03 01:52:38;;;;;;;45.22;32.35;;;;;;;;;;2072069;28;20256;-52
2021/09/03 01:53:38;;;;;;;43.40;31.92;;;;;;;;;;2073672;28;20722;-51
2021/09/03 01:54:39;;;;;;;40.35;30.60;;;;;;;;;;2064544;28;20166;-52
2021/09/03 01:55:39;;;;;;;40.78;30.42;;;;;;;;;;2064521;28;20272;-51
2021/09/03 01:56:39;;;;;;;45.00;32.08;;;;;;;;;;2064620;28;20224;-52
2021/09/03 01:57:39;;;;;;;45.95;33.10;;;;;;;;;;2064524;28;20228;-51
2021/09/03 01:58:40;;;;;;;48.22;35.70;;;;;;;;;;2073036;28;20206;-51
2021/09/03 01:59:40;;;;;;;44.72;32.85;;;;;;;;;;2068739;28;20170;-51
2021/09/03 02:00:40;;;;;;;45.03;34.45;;;;;;;;;;2073330;28;20201;-54
2021/09/03 02:01:41;;;;;;;46.08;33.78;;;;;;;;;;2073536;28;20319;-53
2021/09/03 02:02:41;;;;;;;48.22;33.92;;;;;;;;;;2069749;28;20193;-53
2021/09/03 02:03:41;;;;;;;50.17;36.08;;;;;;;;;;2065462;28;20170;-50
2021/09/03 02:04:42;;;;;;;47.55;34.47;;;;;;;;;;2065155;28;20609;-53
2021/09/03 02:05:42;;;;;;;48.65;36.33;;;;;;;;;;2065475;28;20166;-51
2021/09/03 02:06:42;;;;;;;45.55;35.50;;;;;;;;;;2065290;28;20534;-53
2021/09/03 02:07:43;;;;;;;50.65;36.70;;;;;;;;;;2066417;28;20267;-53
2021/09/03 02:08:43;;;;;;;54.03;36.47;;;;;;;;;;2067602;28;20709;-54
2021/09/03 02:09:43;;;;;;;48.63;37.25;;;;;;;;;;2072136;28;20772;-52
2021/09/03 02:10:44;;;;;;;55.50;36.67;;;;;;;;;;2072712;28;20711;-54
2021/09/03 02:11:44;;;;;;;51.15;37.42;;;;;;;;;;2069154;28;20234;-54
2021/09/03 02:12:44;;;;;;;52.15;39.50;;;;;;;;;;2068565;28;20244;-51
2021/09/03 02:13:44;;;;;;;58.40;37.95;;;;;;;;;;2069422;28;20222;-53
2021/09/03 02:14:45;;;;;;;53.72;38.10;;;;;;;;;;2068485;28;20178;-53
2021/09/03 02:15:45;;;;;;;55.92;39.22;;;;;;;;;;2069985;28;20192;-52
2021/09/03 02:16:45;;;;;;;51.92;35.10;;;;;;;;;;2072821;28;20196;-57
2021/09/03 02:17:45;;;;;;;48.45;36.63;;;;;;;;;;2068744;28;20729;-55
2021/09/03 02:18:46;;;;;;;50.20;35.33;;;;;;;;;;2072655;28;20196;-51
2021/09/03 02:19:46;;;;;;;55.05;35.63;;;;;;;;;;2068474;28;20181;-51
2021/09/03 02:20:46;;;;;;;44.65;32.42;;;;;;;;;;2072674;28;20633;-55
2021/09/03 02:21:46;;;;;;;42.40;31.95;;;;;;;;;;2067288;28;20189;-54
2021/09/03 02:22:47;;;;;;;44.13;32.78;;;;;;;;;;2062758;28;20546;-52
2021/09/03 02:23:47;;;;;;;41.88;30.88;;;;;;;;;;2056633;28;20186;-55
2021/09/03 02:24:47;;;;;;;41.80;32.17;;;;;;;;;;2065873;28;20181;-52
2021/09/03 02:25:48;;;;;;;45.65;32.45;;;;;;;;;;2067370;28;20178;-51
2021/09/03 02:26:48;;;;;;;44.50;33.30;;;;;;;;;;2072299;28;20225;-53
2021/09/03 02:27:48;;;;;;;52.13;36.72;;;;;;;;;;2067420;28;20622;-55
2021/09/03 02:28:48;;;;;;;51.17;37.35;;;;;;;;;;2070036;28;20548;-54
2021/09/03 02:29:48;;;;;;;53.67;37.78;;;;;;;;;;2067488;28;20166;-54
2021/09/03 02:30:49;;;;;;;54.53;38.72;;;;;;;;;;2070771;28;20576;-51
2021/09/03 02:31:49;;;;;;;56.50;37.85;;;;;;;;;;2067356;28;20614;-53
2021/09/03 02:32:49;;;;;;;56.00;36.95;;;;;;;;;;2072082;28;20185;-53
2021/09/03 02:33:50;;;;;;;47.83;34.80;;;;;;;;;;2072071;28;20185;-51
2021/09/03 02:34:50;;;;;;;43.83;33.53;;;;;;;;;;2072116;28;20600;-55
2021/09/03 02:35:50;;;;;;;40.35;29.73;;;;;;;;;;2072999;28;20676;-51
2021/09/03 02:36:50;;;;;;;36.38;28.50;;;;;;;;;;2072475;28;20208;-53
2021/09/03 02:37:51;;;;;;;37.80;30.05;;;;;;;;;;2072568;28;20660;-53
2021/09/03 02:38:51;;;;;;;40.50;28.25;;;;;;;;;;2071488;28;20219;-52
2021/09/03 02:39:51;;;;;;;37.80;27.52;;;;;;;;;;2072970;28;20215;-51
2021/09/03 02:40:52;;;;;;;38.80;27.50;;;;;;;;;;2070790;28;20203;-51
2021/09/03 02:41:53;;;;;;;37.70;27.73;;;;;;;;;;2072808;28;20175;-53
2021/09/03 02:42:54;;;;;;;35.90;27.85;;;;;;;;;;2072174;28;20177;-52
2021/09/03 02:43:55;;;;;;;34.28;27.63;;;;;;;;;;2072805;28;20884;-49
2021/09/03 02:44:55;;;;;;;36.45;26.42;;;;;;;;;;2070273;28;20291;-56
2021/09/03 02:45:55;;;;;;;38.65;30.52;;;;;;;;;;2070659;28;20176;-54
2021/09/03 02:46:55;;;;;;;43.08;30.75;;;;;;;;;;2068978;28;20173;-52
2021/09/03 02:47:56;;;;;;;39.85;30.30;;;;;;;;;;2068161;28;20192;-51
2021/09/03 02:48:57;;;;;;;45.42;31.20;;;;;;;;;;2063743;28;20177;-53
2021/09/03 02:49:57;;;;;;;42.53;32.47;;;;;;;;;;2064328;28;20165;-51
2021/09/03 02:50:57;;;;;;;46.85;31.60;;;;;;;;;;2072224;28;20172;-51
2021/09/03 02:51:57;;;;;;;46.95;32.05;;;;;;;;;;2073179;28;20312;-55
2021/09/03 02:52:58;;;;;;;46.33;33.95;;;;;;;;;;2064196;28;20638;-56
2021/09/03 02:53:59;;;;;;;46.92;34.38;;;;;;;;;;2056689;28;20175;-52
2021/09/03 02:54:59;;;;;;;48.60;35.63;;;;;;;;;;2064822;28;20197;-53
2021/09/03 02:55:59;;;;;;;50.60;34.13;;;;;;;;;;2065116;28;20177;-52
2021/09/03 02:56:59;;;;;;;43.53;33.08;;;;;;;;;;2064933;28;20204;-55
2021/09/03 02:58:00;;;;;;;43.47;33.13;;;;;;;;;;2055967;28;20190;-52
2021/09/03 02:59:00;;;;;;;43.13;32.38;;;;;;;;;;2057382;28;20178;-56
2021/09/03 03:00:04;;;;;;;42.85;31.17;;;;;;;;;;2073155;28;20173;-52
2021/09/03 03:01:04;;;;;;;37.33;28.17;;;;;;;;;;2072919;28;20181;-56
2021/09/03 03:02:04;;;;;;;38.92;29.23;;;;;;;;;;2073102;28;20172;-54
2021/09/03 03:03:05;;;;;;;37.42;28.13;;;;;;;;;;2067666;28;20663;-54
2021/09/03 03:04:05;;;;;;;42.53;28.63;;;;;;;;;;2064964;28;20335;-55
2021/09/03 03:05:05;;;;;;;34.58;27.48;;;;;;;;;;2064717;28;20748;-55
2021/09/03 03:06:06;;;;;;;36.13;27.25;;;;;;;;;;2065196;28;20878;-51
2021/09/03 03:07:06;;;;;;;41.50;29.65;;;;;;;;;;2064815;28;20200;-55
2021/09/03 03:08:06;;;;;;;45.63;32.35;;;;;;;;;;2069687;28;20191;-53
2021/09/03 03:09:06;;;;;;;46.60;33.92;;;;;;;;;;2072659;28;20565;-57
2021/09/03 03:10:07;;;;;;;47.00;33.38;;;;;;;;;;2072863;28;20177;-54
2021/09/03 03:11:07;;;;;;;47.50;33.95;;;;;;;;;;2059596;28;20201;-50
2021/09/03 03:12:08;;;;;;;55.13;35.50;;;;;;;;;;2063216;28;20226;-54
2021/09/03 03:13:23;;;;;;;53.05;36.20;;;;;;;;;;2069697;28;20232;-51
2021/09/03 03:14:27;;;;;;;60.13;40.75;;;;;;;;;;2072906;28;20152;-54
2021/09/03 03:15:27;;;;;;;50.85;34.92;;;;;;;;;;2067158;28;20209;-52
2021/09/03 03:16:28;;;;;;;53.97;36.05;;;;;;;;;;2063470;28;20260;-54
2021/09/03 03:17:28;;;;;;;54.30;38.05;;;;;;;;;;2066067;28;20177;-53
2021/09/03 03:18:28;;;;;;;56.13;38.00;;;;;;;;;;2072090;28;20621;-52
2021/09/03 03:19:29;;;;;;;59.40;39.58;;;;;;;;;;2066983;28;20547;-51
2021/09/03 03:20:29;;;;;;;59.38;38.50;;;;;;;;;;2072397;28;20185;-52
2021/09/03 03:21:30;;;;;;;54.33;38.22;;;;;;;;;;2066768;28;20173;-54
2021/09/03 03:22:30;;;;;;;56.08;38.30;;;;;;;;;;2063713;28;20208;-51
2021/09/03 03:23:30;;;;;;;61.10;38.83;;;;;;;;;;2050624;28;20221;-54
2021/09/03 03:24:31;;;;;;;58.20;40.75;;;;;;;;;;2071821;28;20176;-51
2021/09/03 03:25:31;;;;;;;56.90;38.97;;;;;;;;;;2065643;28;20216;-50
2021/09/03 03:26:31;;;;;;;60.42;38.78;;;;;;;;;;2068041;28;20178;-53
2021/09/03 03:27:31;;;;;;;56.55;37.63;;;;;;;;;;2071346;28;20187;-53
2021/09/03 03:28:32;;;;;;;57.53;36.83;;;;;;;;;;2071819;28;20197;-52
2021/09/03 03:29:32;;;;;;;54.60;38.85;;;;;;;;;;2064736;28;20284;-55
2021/09/03 03:30:32;;;;;;;52.40;37.78;;;;;;;;;;2072026;28;20165;-51
2021/09/03 03:31:32;;;;;;;48.17;36.05;;;;;;;;;;2065069;28;20182;-53
2021/09/03 03:32:33;;;;;;;47.65;35.78;;;;;;;;;;2071992;28;20656;-52
2021/09/03 03:33:33;;;;;;;48.63;33.67;;;;;;;;;;2072511;28;20227;-52
2021/09/03 03:34:33;;;;;;;48.35;34.55;;;;;;;;;;2071999;28;20177;-51
2021/09/03 03:35:33;;;;;;;46.83;32.28;;;;;;;;;;2070595;28;20176;-52
2021/09/03 03:36:34;;;;;;;50.47;34.75;;;;;;;;;;2070799;28;20205;-51
2021/09/03 03:37:34;;;;;;;45.25;33.05;;;;;;;;;;2071580;28;20173;-51
2021/09/03 03:38:34;;;;;;;45.25;33.38;;;;;;;;;;2070893;28;20216;-53
2021/09/03 03:39:34;;;;;;;42.53;33.22;;;;;;;;;;2072261;28;20201;-53
2021/09/03 03:40:35;;;;;;;45.63;33.35;;;;;;;;;;2069758;28;20173;-53
2021/09/03 03:41:35;;;;;;;45.90;33.00;;;;;;;;;;2070687;28;20173;-52
2021/09/03 03:42:35;;;;;;;50.33;33.88;;;;;;;;;;2067537;28;20264;-53
2021/09/03 03:43:36;;;;;;;51.53;35.88;;;;;;;;;;2073427;28;20575;-52
2021/09/03 03:44:36;;;;;;;54.63;35.28;;;;;;;;;;2069647;28;20295;-52
2021/09/03 03:45:36;;;;;;;53.65;35.78;;;;;;;;;;2074043;28;20173;-51
2021/09/03 03:46:36;;;;;;;51.42;35.72;;;;;;;;;;2074010;28;20650;-51
2021/09/03 03:47:36;;;;;;;50.80;36.08;;;;;;;;;;2067104;28;20269;-52
2021/09/03 03:48:37;;;;;;;45.72;34.53;;;;;;;;;;2068086;28;20182;-55
2021/09/03 03:49:37;;;;;;;44.10;33.17;;;;;;;;;;2068185;28;20200;-56
2021/09/03 03:50:37;;;;;;;44.50;31.13;;;;;;;;;;2068220;28;20295;-52
2021/09/03 03:51:38;;;;;;;40.75;30.25;;;;;;;;;;2073373;28;20197;-50
2021/09/03 03:52:38;;;;;;;43.30;31.17;;;;;;;;;;2067560;28;20544;-52
2021/09/03 03:53:38;;;;;;;40.78;29.13;;;;;;;;;;2073928;28;20211;-46
2021/09/03 03:54:39;;;;;;;39.60;29.20;;;;;;;;;;2066756;28;20548;-53
2021/09/03 03:55:39;;;;;;;33.97;28.48;;;;;;;;;;2073480;28;20176;-53
2021/09/03 03:56:39;;;;;;;36.00;28.45;;;;;;;;;;2067200;28;20336;-53
2021/09/03 03:57:39;;;;;;;38.15;28.92;;;;;;;;;;2073020;28;20248;-53
2021/09/03 03:58:40;;;;;;;39.72;28.95;;;;;;;;;;2066714;28;20753;-54
2021/09/03 03:59:40;;;;;;;34.33;28.58;;;;;;;;;;2073182;28;20520;-52
2021/09/03 04:00:40;;;;;;;39.85;28.20;;;;;;;;;;2073585;28;20251;-51
2021/09/03 04:01:40;;;;;;;36.30;28.08;;;;;;;;;;2072028;28;20170;-52
2021/09/03 04:02:41;;;;;;;36.63;28.98;;;;;;;;;;2072934;28;20616;-53
2021/09/03 04:03:41;;;;;;;35.58;26.95;;;;;;;;;;2073154;28;20639;-54
2021/09/03 04:04:41;;;;;;;35.97;26.85;;;;;;;;;;2066000;28;20184;-55
2021/09/03 04:05:41;;;;;;;38.30;28.35;;;;;;;;;;2068899;28;20189;-53
2021/09/03 04:06:42;;;;;;;40.05;28.35;;;;;;;;;;2073373;28;20164;-51
2021/09/03 04:07:42;;;;;;;41.83;28.85;;;;;;;;;;2073376;28;20177;-54
2021/09/03 04:08:42;;;;;;;42.42;30.67;;;;;;;;;;2073119;28;20218;-52
2021/09/03 04:09:42;;;;;;;46.58;33.40;;;;;;;;;;2071581;28;20232;-56
2021/09/03 04:10:42;;;;;;;47.97;33.60;;;;;;;;;;2071062;28;20169;-54
2021/09/03 04:11:46;;;;;;;47.75;34.88;;;;;;;;;;2064230;28;20236;-53
2021/09/03 04:12:47;;;;;;;52.28;34.83;;;;;;;;;;2056701;28;20174;-51
2021/09/03 04:13:47;;;;;;;53.22;36.75;;;;;;;;;;2062772;28;20196;-51
2021/09/03 04:14:47;;;;;;;55.30;35.90;;;;;;;;;;2073523;28;20192;-53
2021/09/03 04:15:47;;;;;;;54.60;36.00;;;;;;;;;;2057950;28;20335;-52
2021/09/03 04:16:47;;;;;;;56.35;37.25;;;;;;;;;;2056706;28;20191;-52
2021/09/03 04:17:48;;;;;;;57.70;37.22;;;;;;;;;;2073038;28;20184;-51
2021/09/03 04:18:48;;;;;;;60.17;40.17;;;;;;;;;;2072999;28;20266;-53
2021/09/03 04:19:48;;;;;;;54.90;38.35;;;;;;;;;;2070431;28;20177;-55
2021/09/03 04:20:48;;;;;;;64.43;39.63;;;;;;;;;;2073688;28;20252;-52
2021/09/03 04:21:48;;;;;;;61.75;39.75;;;;;;;;;;2067592;28;20189;-54
2021/09/03 04:22:49;;;;;;;65.05;38.15;;;;;;;;;;2072004;28;20176;-52
2021/09/03 04:23:49;;;;;;;54.42;36.72;;;;;;;;;;2075759;28;20181;-55
2021/09/03 04:24:49;;;;;;;58.08;38.30;;;;;;;;;;2070738;28;20227;-53
2021/09/03 04:25:50;;;;;;;55.90;37.67;;;;;;;;;;2069858;28;20201;-52
2021/09/03 04:26:50;;;;;;;56.35;38.13;;;;;;;;;;2070745;28;20188;-55
2021/09/03 04:27:50;;;;;;;51.30;35.38;;;;;;;;;;2068439;28;20189;-52
2021/09/03 04:28:50;;;;;;;58.78;39.28;;;;;;;;;;2072873;28;20697;-54
2021/09/03 04:29:51;;;;;;;51.05;37.05;;;;;;;;;;2064703;28;20237;-52
2021/09/03 04:30:51;;;;;;;59.33;38.22;;;;;;;;;;2063506;28;20611;-53
2021/09/03 04:31:51;;;;;;;56.85;37.58;;;;;;;;;;2072790;28;20621;-56
2021/09/03 04:32:52;;;;;;;57.55;38.65;;;;;;;;;;2071833;28;20189;-56
2021/09/03 04:33:52;;;;;;;60.10;40.10;;;;;;;;;;2064279;28;20677;-59
2021/09/03 04:34:52;;;;;;;59.22;38.15;;;;;;;;;;2061907;28;20713;-53
2021/09/03 04:35:52;;;;;;;53.30;37.28;;;;;;;;;;2062427;28;20185;-52
2021/09/03 04:36:53;;;;;;;50.30;34.35;;;;;;;;;;2064773;28;20217;-55
2021/09/03 04:37:54;;;;;;;49.58;34.40;;;;;;;;;;2068720;28;20707;-53
2021/09/03 04:38:54;;;;;;;46.30;34.08;;;;;;;;;;2063932;28;20249;-54
2021/09/03 04:39:54;;;;;;;48.05;32.85;;;;;;;;;;2064670;28;20189;-55
2021/09/03 04:40:55;;;;;;;45.80;32.33;;;;;;;;;;2070749;28;20256;-53
2021/09/03 04:41:55;;;;;;;46.08;32.25;;;;;;;;;;2073576;28;20315;-53
2021/09/03 04:42:55;;;;;;;45.53;31.30;;;;;;;;;;2072992;28;20267;-51
2021/09/03 04:43:56;;;;;;;44.88;32.30;;;;;;;;;;2073567;28;20172;-54
2021/09/03 04:44:56;;;;;;;40.70;31.45;;;;;;;;;;2069791;28;20240;-56
2021/09/03 04:45:57;;;;;;;42.33;30.77;;;;;;;;;;2068243;28;20208;-52
2021/09/03 04:46:57;;;;;;;42.00;31.23;;;;;;;;;;2059798;28;20539;-54
2021/09/03 04:47:57;;;;;;;45.35;31.30;;;;;;;;;;2068571;28;20223;-56
2021/09/03 04:48:58;;;;;;;43.15;31.75;;;;;;;;;;2069391;28;20177;-56
2021/09/03 04:49:58;;;;;;;39.00;29.55;;;;;;;;;;2073057;28;20172;-53
2021/09/03 04:50:58;;;;;;;37.83;29.45;;;;;;;;;;2072748;28;20176;-54
2021/09/03 04:51:59;;;;;;;44.15;30.58;;;;;;;;;;2068875;28;20256;-56
2021/09/03 04:52:59;;;;;;;39.92;30.88;;;;;;;;;;2073077;28;20181;-55
2021/09/03 04:53:59;;;;;;;39.80;30.45;;;;;;;;;;2065448;28;20198;-52
2021/09/03 04:55:00;;;;;;;42.75;31.75;;;;;;;;;;2061482;28;20205;-52
2021/09/03 04:56:00;;;;;;;36.88;28.70;;;;;;;;;;2072362;28;20650;-54
2021/09/03 04:57:00;;;;;;;41.22;29.25;;;;;;;;;;2073240;28;20704;-52
2021/09/03 04:58:01;;;;;;;43.78;29.67;;;;;;;;;;2068682;28;20181;-53
2021/09/03 04:59:01;;;;;;;42.97;30.60;;;;;;;;;;2064237;28;20185;-52
2021/09/03 05:00:02;;;;;;;40.55;29.02;;;;;;;;;;2064298;28;20173;-50
2021/09/03 05:01:02;;;;;;;41.88;30.38;;;;;;;;;;2073301;28;20192;-49
2021/09/03 05:02:02;;;;;;;44.33;29.85;;;;;;;;;;2069986;28;20161;-48
2021/09/03 05:03:03;;;;;;;41.00;29.27;;;;;;;;;;2073325;28;20547;-52
2021/09/03 05:04:04;;;;;;;39.38;30.30;;;;;;;;;;2069789;28;20268;-53
2021/09/03 05:05:04;;;;;;;52.00;34.95;;;;;;;;;;2072471;28;20204;-51
2021/09/03 05:06:05;;;;;;;53.25;35.55;;;;;;;;;;2073372;28;20165;-53
2021/09/03 05:07:06;;;;;;;50.15;35.38;;;;;;;;;;2067298;28;20735;-52
2021/09/03 05:08:06;;;;;;;60.03;37.80;;;;;;;;;;2063830;28;20198;-54
2021/09/03 05:09:07;;;;;;;58.90;38.03;;;;;;;;;;2073966;28;20181;-51
2021/09/03 05:10:08;;;;;;;73.95;42.60;;;;;;;;;;2072844;28;20231;-51
2021/09/03 05:11:08;;;;;;;73.03;47.35;;;;;;;;;;2078286;28;20176;-50
2021/09/03 05:12:08;;;;;;;74.72;43.25;;;;;;;;;;2075325;28;20181;-54
2021/09/03 05:13:09;;;;;;;66.50;42.03;;;;;;;;;;2073436;28;20869;-51
2021/09/03 05:14:09;;;;;;;78.15;50.88;;;;;;;;;;2074352;28;20173;-51
2021/09/03 05:15:14;;;;;;;86.93;47.38;;;;;;;;;;2079241;28;20505;-53
2021/09/03 05:16:14;;;;;;;82.38;45.95;;;;;;;;;;2081793;28;20200;-52
2021/09/03 05:17:15;;;;;;;86.32;50.47;;;;;;;;;;2082063;28;20520;-51
2021/09/03 05:18:15;;;;;;;89.30;50.22;;;;;;;;;;2081566;28;20843;-51
2021/09/03 05:19:16;;;;;;;101.25;50.67;;;;;;;;;;2081941;28;20176;-52
2021/09/03 05:20:17;;;;;;;105.05;56.42;;;;;;;;;;2078545;28;20179;-57
2021/09/03 05:21:17;;;;;;;103.85;51.22;;;;;;;;;;2075676;28;20235;-58
2021/09/03 05:22:18;;;;;;;93.70;52.90;;;;;;;;;;2075601;28;20180;-57
2021/09/03 05:23:18;;;;;;;128.57;54.45;;;;;;;;;;2074135;28;20529;-54
2021/09/03 05:24:18;;;;;;;102.57;49.47;;;;;;;;;;2073563;28;20221;-55
2021/09/03 05:25:19;;;;;;;99.25;51.38;;;;;;;;;;2073324;28;20207;-58
2021/09/03 05:26:19;;;;;;;92.35;50.38;;;;;;;;;;2064933;28;20220;-58
2021/09/03 05:27:20;;;;;;;90.90;52.40;;;;;;;;;;2065079;28;20182;-59
2021/09/03 05:28:20;;;;;;;89.72;50.85;;;;;;;;;;2073354;28;20178;-55
2021/09/03 05:29:20;;;;;;;94.07;54.03;;;;;;;;;;2064932;28;20166;-56
2021/09/03 05:30:21;;;;;;;101.22;54.83;;;;;;;;;;2068679;28;20680;-57
2021/09/03 05:31:21;;;;;;;102.40;53.65;;;;;;;;;;2081793;28;20167;-58
2021/09/03 05:32:22;;;;;;;97.15;54.20;;;;;;;;;;2065404;28;20530;-54
2021/09/03 05:33:22;;;;;;;103.50;60.72;;;;;;;;;;2055134;28;20175;-51
2021/09/03 05:34:22;;;;;;;95.68;52.47;;;;;;;;;;2065572;28;20166;-57
2021/09/03 05:35:26;;;;;;;84.32;52.72;;;;;;;;;;2065111;28;20201;-51
2021/09/03 05:36:27;;;;;;;78.13;48.65;;;;;;;;;;2065167;28;20183;-55
2021/09/03 05:37:27;;;;;;;74.57;45.92;;;;;;;;;;2056991;28;20174;-55
2021/09/03 05:38:27;;;;;;;84.57;47.88;;;;;;;;;;2056549;28;20174;-57
2021/09/03 05:39:28;;;;;;;87.47;47.38;;;;;;;;;;2064904;28;20185;-57
2021/09/03 05:40:28;;;;;;;86.50;52.05;;;;;;;;;;2065337;28;20178;-57
2021/09/03 05:41:28;;;;;;;82.18;52.63;;;;;;;;;;2065883;28;20197;-57
2021/09/03 05:42:29;;;;;;;83.40;47.90;;;;;;;;;;2065686;28;20701;-57
2021/09/03 05:43:29;;;;;;;73.15;45.92;;;;;;;;;;2065479;28;20189;-55
2021/09/03 05:44:29;;;;;;;87.45;49.75;;;;;;;;;;2057038;28;20185;-57
2021/09/03 05:45:30;;;;;;;78.68;48.78;;;;;;;;;;2056759;28;20201;-59
2021/09/03 05:46:31;;;;;;;67.25;45.03;;;;;;;;;;2073894;28;20165;-54
2021/09/03 05:47:31;;;;;;;66.28;44.47;;;;;;;;;;2073585;28;20176;-54
2021/09/03 05:48:32;;;;;;;123.00;43.72;;;;;;;;;;2073485;28;20161;-59
2021/09/03 05:49:32;;;;;;;63.35;41.60;;;;;;;;;;2067365;28;20173;-53
2021/09/03 05:50:32;;;;;;;58.40;39.58;;;;;;;;;;2065642;28;20541;-55
2021/09/03 05:51:33;;;;;;;68.95;45.63;;;;;;;;;;2065447;28;20166;-56
2021/09/03 05:52:33;;;;;;;72.72;41.47;;;;;;;;;;2065317;28;20201;-53